createdAt,value
2023-02-09T00:00:01.935Z,44.90
2023-02-09T00:02:29.085Z,38.17
2023-02-09T00:04:55.825Z,35.35
2023-02-09T00:07:22.552Z,43.70
2023-02-09T00:09:51.298Z,38.80
2023-02-09T00:12:37.789Z,43.67
2023-02-09T00:15:06.226Z,39.55
2023-02-09T00:17:37.151Z,29.52
2023-02-09T00:20:06.136Z,39.25
2023-02-09T00:22:33.141Z,37.60
2023-02-09T00:25:00.089Z,36.13
2023-02-09T00:27:26.778Z,42.88
2023-02-09T00:29:53.443Z,40.63
2023-02-09T00:32:20.176Z,39.97
2023-02-09T00:34:46.894Z,42.80
2023-02-09T00:37:13.513Z,43.70
2023-02-09T00:39:40.256Z,37.75
2023-02-09T00:42:07.011Z,44.25
2023-02-09T00:44:35.580Z,42.35
2023-02-09T00:47:02.958Z,47.55
2023-02-09T00:49:30.388Z,43.88
2023-02-09T00:51:57.577Z,38.25
2023-02-09T00:54:24.556Z,45.40
2023-02-09T00:56:51.272Z,37.95
2023-02-09T00:59:18.093Z,37.58
2023-02-09T01:01:44.839Z,39.15
2023-02-09T01:04:13.192Z,42.75
2023-02-09T01:06:39.937Z,39.22
2023-02-09T01:09:06.623Z,40.72
2023-02-09T01:11:33.352Z,38.75
2023-02-09T01:14:00.994Z,38.22
2023-02-09T01:16:31.701Z,43.33
2023-02-09T01:19:00.724Z,39.63
2023-02-09T01:21:27.855Z,35.95
2023-02-09T01:23:55.107Z,39.20
2023-02-09T01:26:22.046Z,43.47
2023-02-09T01:28:51.234Z,40.80
2023-02-09T01:31:32.378Z,40.92
2023-02-09T01:34:01.401Z,37.40
2023-02-09T01:36:29.572Z,35.95
2023-02-09T01:38:58.869Z,34.30
2023-02-09T01:41:26.660Z,42.47
2023-02-09T01:43:59.652Z,34.83
2023-02-09T01:46:32.272Z,42.10
2023-02-09T01:49:06.883Z,36.28
2023-02-09T01:51:38.219Z,38.42
2023-02-09T01:54:12.275Z,44.45
2023-02-09T01:56:43.817Z,42.97
2023-02-09T01:59:11.268Z,39.92
2023-02-09T02:01:38.284Z,41.97
2023-02-09T02:04:06.187Z,39.10
2023-02-09T02:06:33.473Z,37.67
2023-02-09T02:09:06.625Z,39.72
2023-02-09T02:11:33.722Z,39.70
2023-02-09T02:14:00.472Z,38.75
2023-02-09T02:16:52.564Z,39.85
2023-02-09T02:19:32.690Z,37.85
2023-02-09T02:22:24.421Z,38.05
2023-02-09T02:24:57.045Z,36.67
2023-02-09T02:28:01.761Z,40.15
2023-02-09T02:30:37.647Z,34.80
2023-02-09T02:33:07.289Z,40.35
2023-02-09T02:35:43.238Z,40.40
2023-02-09T02:38:13.181Z,38.00
2023-02-09T02:40:58.190Z,36.90
2023-02-09T02:44:06.196Z,39.00
2023-02-09T02:46:43.700Z,42.80
2023-02-09T02:49:26.148Z,35.40
2023-02-09T02:51:56.658Z,40.65
2023-02-09T02:54:31.489Z,35.55
2023-02-09T02:57:03.486Z,34.03
2023-02-09T02:59:34.044Z,41.67
2023-02-09T03:02:07.283Z,41.35
2023-02-09T03:04:37.038Z,40.10
2023-02-09T03:07:07.757Z,34.45
2023-02-09T03:09:34.681Z,39.80
2023-02-09T03:12:48.862Z,40.30
2023-02-09T03:15:49.525Z,24.95
2023-02-09T03:18:28.156Z,34.13
2023-02-09T03:23:42.031Z,37.80
2023-02-09T03:26:17.534Z,36.38
2023-02-09T03:28:48.794Z,39.72
2023-02-09T03:31:15.948Z,39.75
2023-02-09T03:33:43.034Z,38.25
2023-02-09T03:36:18.380Z,39.83
2023-02-09T03:38:45.350Z,38.58
2023-02-09T03:41:12.072Z,40.20
2023-02-09T03:43:57.284Z,36.53
2023-02-09T03:46:23.970Z,42.30
2023-02-09T03:48:50.785Z,38.25
2023-02-09T03:51:17.458Z,42.15
2023-02-09T03:53:44.129Z,38.85
2023-02-09T03:56:10.813Z,40.58
2023-02-09T03:58:37.803Z,38.83
2023-02-09T04:01:07.746Z,40.15
2023-02-09T04:03:34.955Z,41.17
2023-02-09T04:06:02.122Z,43.25
2023-02-09T04:08:30.067Z,41.22
2023-02-09T04:10:59.889Z,42.60
2023-02-09T04:13:26.856Z,42.60
2023-02-09T04:15:54.108Z,40.55
2023-02-09T04:18:21.195Z,40.15
2023-02-09T04:20:48.327Z,37.22
2023-02-09T04:23:16.492Z,42.28
2023-02-09T04:25:43.318Z,46.22
2023-02-09T04:28:10.200Z,43.50
2023-02-09T04:30:37.049Z,41.45
2023-02-09T04:33:04.089Z,41.25
2023-02-09T04:35:30.818Z,44.10
2023-02-09T04:37:57.615Z,37.25
2023-02-09T04:40:24.270Z,40.17
2023-02-09T04:42:51.016Z,44.45
2023-02-09T04:45:17.771Z,45.65
2023-02-09T04:47:44.441Z,41.80
2023-02-09T04:50:11.348Z,39.53
2023-02-09T04:52:38.080Z,38.70
2023-02-09T04:55:05.063Z,41.22
2023-02-09T04:57:50.313Z,41.83
2023-02-09T05:00:17.297Z,37.42
2023-02-09T05:02:44.005Z,45.08
2023-02-09T05:05:10.704Z,40.60
2023-02-09T05:07:37.437Z,43.55
2023-02-09T05:10:04.702Z,42.38
2023-02-09T05:12:31.466Z,42.70
2023-02-09T05:14:58.140Z,38.95
2023-02-09T05:17:24.916Z,41.78
2023-02-09T05:19:51.690Z,41.13
2023-02-09T05:22:18.532Z,43.08
2023-02-09T05:24:45.177Z,43.95
2023-02-09T05:27:11.838Z,41.97
2023-02-09T05:29:38.540Z,42.83
2023-02-09T05:32:05.538Z,40.17
2023-02-09T05:34:32.452Z,43.22
2023-02-09T05:36:59.136Z,41.92
2023-02-09T05:39:26.143Z,42.60
2023-02-09T05:42:11.298Z,45.45
2023-02-09T05:44:38.162Z,39.33
2023-02-09T05:47:05.292Z,41.88
2023-02-09T05:49:32.027Z,40.72
2023-02-09T05:51:58.708Z,41.33
2023-02-09T05:54:25.445Z,41.83
2023-02-09T05:56:52.242Z,40.92
2023-02-09T05:59:19.088Z,43.63
2023-02-09T06:01:45.757Z,40.83
2023-02-09T06:04:12.428Z,41.05
2023-02-09T06:06:39.254Z,42.90
2023-02-09T06:09:06.119Z,45.55
2023-02-09T06:11:33.389Z,42.13
2023-02-09T06:14:00.205Z,42.83
2023-02-09T06:16:27.134Z,38.75
2023-02-09T06:18:54.009Z,40.97
2023-02-09T06:21:20.683Z,40.72
2023-02-09T06:23:47.609Z,40.40
2023-02-09T06:26:17.238Z,40.08
2023-02-09T06:28:44.639Z,42.30
2023-02-09T06:31:12.003Z,39.78
2023-02-09T06:33:39.353Z,41.90
2023-02-09T06:36:07.428Z,39.97
2023-02-09T06:38:35.942Z,45.45
2023-02-09T06:41:03.304Z,43.17
2023-02-09T06:43:29.993Z,44.17
2023-02-09T06:45:57.354Z,41.85
2023-02-09T06:48:25.104Z,40.65
2023-02-09T06:50:52.079Z,40.20
2023-02-09T06:53:19.059Z,43.90
2023-02-09T06:55:46.016Z,43.80
2023-02-09T06:58:12.909Z,36.30
2023-02-09T07:00:39.610Z,43.85
2023-02-09T07:03:06.364Z,39.17
2023-02-09T07:05:33.163Z,46.03
2023-02-09T07:08:00.138Z,44.42
2023-02-09T07:10:27.186Z,43.55
2023-02-09T07:12:57.325Z,41.50
2023-02-09T07:15:24.125Z,40.92
2023-02-09T07:17:50.788Z,41.80
2023-02-09T07:20:17.613Z,39.33
2023-02-09T07:22:44.385Z,40.45
2023-02-09T07:25:11.324Z,42.90
2023-02-09T07:27:38.210Z,38.22
2023-02-09T07:30:05.373Z,39.40
2023-02-09T07:32:33.257Z,39.70
2023-02-09T07:35:02.842Z,39.75
2023-02-09T07:37:29.743Z,40.88
2023-02-09T07:39:56.566Z,36.92
2023-02-09T07:42:23.550Z,44.28
2023-02-09T07:44:50.241Z,35.17
2023-02-09T07:47:17.095Z,41.47
2023-02-09T07:49:43.908Z,38.55
2023-02-09T07:52:10.987Z,37.15
2023-02-09T07:54:37.664Z,34.20
2023-02-09T07:57:04.439Z,32.08
2023-02-09T07:59:31.150Z,39.15
2023-02-09T08:01:58.443Z,36.40
2023-02-09T08:04:25.105Z,33.97
2023-02-09T08:06:53.240Z,40.25
2023-02-09T08:09:19.982Z,38.50
2023-02-09T08:11:54.570Z,34.28
2023-02-09T08:14:31.851Z,35.58
2023-02-09T08:17:23.093Z,34.25
2023-02-09T08:19:54.240Z,33.72
2023-02-09T08:22:22.295Z,37.60
2023-02-09T08:24:49.012Z,37.97
2023-02-09T08:27:15.920Z,35.05
2023-02-09T08:29:42.681Z,33.58
2023-02-09T08:32:09.401Z,35.92
2023-02-09T08:34:36.250Z,34.83
2023-02-09T08:37:03.017Z,35.60
2023-02-09T08:39:29.834Z,35.42
2023-02-09T08:41:56.540Z,33.83
2023-02-09T08:44:23.297Z,34.63
2023-02-09T08:46:50.228Z,34.90
2023-02-09T08:49:17.174Z,34.03
2023-02-09T08:51:43.848Z,36.50
2023-02-09T08:54:10.734Z,36.20
2023-02-09T08:56:37.608Z,36.38
2023-02-09T08:59:04.924Z,35.72
2023-02-09T09:01:31.784Z,31.48
2023-02-09T09:03:58.625Z,34.40
2023-02-09T09:06:29.713Z,33.13
2023-02-09T09:08:57.084Z,29.27
2023-02-09T09:11:24.105Z,34.15
2023-02-09T09:13:50.898Z,33.03
2023-02-09T09:16:20.661Z,31.70
2023-02-09T09:18:48.474Z,33.05
2023-02-09T09:21:17.277Z,30.80
2023-02-09T09:23:45.076Z,30.58
2023-02-09T09:26:12.098Z,30.25
2023-02-09T09:28:39.009Z,30.83
2023-02-09T09:31:14.842Z,30.23
2023-02-09T09:33:42.289Z,31.45
2023-02-09T09:36:10.045Z,27.70
2023-02-09T09:38:38.549Z,31.80
2023-02-09T09:41:16.740Z,32.47
2023-02-09T09:43:43.875Z,31.50
2023-02-09T09:46:17.332Z,31.48
2023-02-09T09:48:47.087Z,30.95
2023-02-09T09:51:40.740Z,29.23
2023-02-09T09:54:23.420Z,29.15
2023-02-09T09:56:52.127Z,29.13
2023-02-09T09:59:26.348Z,27.02
2023-02-09T10:01:55.105Z,27.55
2023-02-09T10:04:22.169Z,25.13
2023-02-09T10:06:59.123Z,27.50
2023-02-09T10:09:42.157Z,28.15
2023-02-09T10:12:24.925Z,28.38
2023-02-09T10:14:51.729Z,29.35
2023-02-09T10:17:18.661Z,28.35
2023-02-09T10:20:06.455Z,27.90
2023-02-09T10:22:33.200Z,23.42
2023-02-09T10:25:02.055Z,23.95
2023-02-09T10:27:31.261Z,25.60
2023-02-09T10:30:28.071Z,25.55
2023-02-09T10:32:59.845Z,25.52
2023-02-09T10:35:32.419Z,25.35
2023-02-09T10:38:01.979Z,26.08
2023-02-09T10:40:32.573Z,23.33
2023-02-09T10:43:02.801Z,23.05
2023-02-09T10:45:37.675Z,25.40
2023-02-09T10:48:13.418Z,21.85
2023-02-09T10:50:52.318Z,24.33
2023-02-09T10:53:24.088Z,23.67
2023-02-09T10:55:58.183Z,23.60
2023-02-09T10:58:32.068Z,25.83
2023-02-09T11:01:16.400Z,25.85
2023-02-09T11:04:17.552Z,25.65
2023-02-09T11:06:58.898Z,28.02
2023-02-09T11:09:37.877Z,27.30
2023-02-09T11:12:06.028Z,23.60
2023-02-09T11:14:32.736Z,24.27
2023-02-09T11:17:37.462Z,24.08
2023-02-09T11:20:33.610Z,28.00
2023-02-09T11:23:31.509Z,23.63
2023-02-09T11:26:09.098Z,25.67
2023-02-09T11:28:50.799Z,27.77
2023-02-09T11:31:39.473Z,22.42
2023-02-09T11:34:18.486Z,22.23
2023-02-09T11:36:57.303Z,21.38
2023-02-09T11:39:38.255Z,19.83
2023-02-09T11:42:39.465Z,22.90
2023-02-09T11:45:21.490Z,18.30
2023-02-09T11:48:26.046Z,22.23
2023-02-09T11:51:11.855Z,22.42
2023-02-09T11:54:04.833Z,22.52
2023-02-09T11:56:37.357Z,20.17
2023-02-09T11:59:10.570Z,22.60
2023-02-09T12:01:43.295Z,21.52
2023-02-09T12:04:37.376Z,24.25
2023-02-09T12:07:33.027Z,22.25
2023-02-09T12:10:06.088Z,20.42
2023-02-09T12:12:44.889Z,21.80
2023-02-09T12:15:19.812Z,18.58
2023-02-09T12:17:49.732Z,19.35
2023-02-09T12:20:28.331Z,20.10
2023-02-09T12:23:10.355Z,19.08
2023-02-09T12:26:00.429Z,18.85
2023-02-09T12:28:27.138Z,21.30
2023-02-09T12:30:53.952Z,17.55
2023-02-09T12:33:23.685Z,20.73
2023-02-09T12:36:16.017Z,23.80
2023-02-09T12:38:56.491Z,20.73
2023-02-09T12:41:23.764Z,18.65
2023-02-09T12:43:51.457Z,20.23
2023-02-09T12:46:41.538Z,19.15
2023-02-09T12:49:11.164Z,18.02
2023-02-09T12:51:53.196Z,19.15
2023-02-09T12:54:56.722Z,17.80
2023-02-09T12:57:23.949Z,18.13
2023-02-09T12:59:51.042Z,18.13
2023-02-09T13:02:39.135Z,19.55
2023-02-09T13:05:17.563Z,17.52
2023-02-09T13:07:53.772Z,18.42
2023-02-09T13:10:26.654Z,21.38
2023-02-09T13:13:31.971Z,18.38
2023-02-09T13:16:25.780Z,19.10
2023-02-09T13:19:17.788Z,17.40
2023-02-09T13:22:16.869Z,17.98
2023-02-09T13:24:54.997Z,18.15
2023-02-09T13:27:24.620Z,18.67
2023-02-09T13:29:56.721Z,15.93
2023-02-09T13:32:55.658Z,17.63
2023-02-09T13:35:29.025Z,20.98
2023-02-09T13:37:58.839Z,18.40
2023-02-09T13:40:30.039Z,19.05
2023-02-09T13:43:11.261Z,19.08
2023-02-09T13:45:50.371Z,17.08
2023-02-09T13:48:24.081Z,17.50
2023-02-09T13:50:52.446Z,19.55
2023-02-09T13:53:22.820Z,16.40
2023-02-09T13:55:53.062Z,18.15
2023-02-09T13:58:30.127Z,17.23
2023-02-09T14:01:02.627Z,18.27
2023-02-09T14:03:46.893Z,18.60
2023-02-09T14:06:31.667Z,18.23
2023-02-09T14:09:00.397Z,16.63
2023-02-09T14:11:41.806Z,18.02
2023-02-09T14:14:15.862Z,17.48
2023-02-09T14:16:53.114Z,18.42
2023-02-09T14:19:31.783Z,18.02
2023-02-09T14:21:58.579Z,17.38
2023-02-09T14:24:26.955Z,17.63
2023-02-09T14:26:59.964Z,18.67
2023-02-09T14:29:30.164Z,20.33
2023-02-09T14:32:04.028Z,18.10
2023-02-09T14:34:37.172Z,17.45
2023-02-09T14:37:24.092Z,18.75
2023-02-09T14:40:06.278Z,17.80
2023-02-09T14:42:34.857Z,18.00
2023-02-09T14:45:38.734Z,15.55
2023-02-09T14:48:26.913Z,19.75
2023-02-09T14:50:59.175Z,17.98
2023-02-09T14:53:31.911Z,20.13
2023-02-09T14:55:59.357Z,23.58
2023-02-09T14:58:27.813Z,20.15
2023-02-09T15:00:56.687Z,19.83
2023-02-09T15:03:23.626Z,18.80
2023-02-09T15:05:54.523Z,20.67
2023-02-09T15:08:22.714Z,16.63
2023-02-09T15:10:57.423Z,17.65
2023-02-09T15:13:24.470Z,18.05
2023-02-09T15:15:51.235Z,18.75
2023-02-09T15:18:24.492Z,19.40
2023-02-09T15:20:51.744Z,16.05
2023-02-09T15:23:19.160Z,18.30
2023-02-09T15:25:46.462Z,18.55
2023-02-09T15:28:28.830Z,22.00
2023-02-09T15:30:56.871Z,23.02
2023-02-09T15:33:25.636Z,20.42
2023-02-09T15:35:52.686Z,18.88
2023-02-09T15:38:19.829Z,18.40
2023-02-09T15:41:07.890Z,17.75
2023-02-09T15:43:54.120Z,17.55
2023-02-09T15:46:39.843Z,17.17
2023-02-09T15:49:07.492Z,18.75
2023-02-09T15:51:36.879Z,18.38
2023-02-09T15:54:07.612Z,17.80
2023-02-09T15:56:36.634Z,17.40
2023-02-09T15:59:05.552Z,17.17
2023-02-09T16:01:35.863Z,19.30
2023-02-09T16:04:13.904Z,17.58
2023-02-09T16:06:49.628Z,15.70
2023-02-09T16:09:23.574Z,17.25
2023-02-09T16:11:50.337Z,15.25
2023-02-09T16:14:24.304Z,19.70
2023-02-09T16:16:51.303Z,17.75
2023-02-09T16:19:19.103Z,16.80
2023-02-09T16:21:51.784Z,15.50
2023-02-09T16:24:41.039Z,18.88
2023-02-09T16:27:15.084Z,14.35
2023-02-09T16:29:42.294Z,16.85
2023-02-09T16:32:22.440Z,16.08
2023-02-09T16:34:49.887Z,13.93
2023-02-09T16:37:23.554Z,17.08
2023-02-09T16:39:50.437Z,20.42
2023-02-09T16:42:17.666Z,15.68
2023-02-09T16:44:44.973Z,14.82
2023-02-09T16:47:19.010Z,16.90
2023-02-09T16:50:00.878Z,16.63
2023-02-09T16:52:30.274Z,15.07
2023-02-09T16:55:00.390Z,18.88
2023-02-09T16:57:28.646Z,16.60
2023-02-09T16:59:55.890Z,18.63
2023-02-09T17:02:31.695Z,16.45
2023-02-09T17:04:59.386Z,18.40
2023-02-09T17:07:35.666Z,16.42
2023-02-09T17:10:18.580Z,16.02
2023-02-09T17:12:45.752Z,15.93
2023-02-09T17:15:28.852Z,15.93
2023-02-09T17:18:02.098Z,15.75
2023-02-09T17:20:36.928Z,15.25
2023-02-09T17:23:05.028Z,15.07
2023-02-09T17:25:31.956Z,14.98
2023-02-09T17:27:58.865Z,12.82
2023-02-09T17:30:25.688Z,15.65
2023-02-09T17:32:59.804Z,17.45
2023-02-09T17:35:53.030Z,14.63
2023-02-09T17:38:27.898Z,17.55
2023-02-09T17:40:56.440Z,14.95
2023-02-09T17:43:24.174Z,18.23
2023-02-09T17:45:51.952Z,14.38
2023-02-09T17:48:22.737Z,14.50
2023-02-09T17:50:52.859Z,15.60
2023-02-09T17:53:23.766Z,13.52
2023-02-09T17:55:51.630Z,17.83
2023-02-09T17:58:18.581Z,15.63
2023-02-09T18:00:46.123Z,17.17
2023-02-09T18:03:21.729Z,17.90
2023-02-09T18:05:58.512Z,16.20
2023-02-09T18:08:27.262Z,16.83
2023-02-09T18:10:58.028Z,17.60
2023-02-09T18:13:27.025Z,16.25
2023-02-09T18:15:53.881Z,16.17
2023-02-09T18:18:22.570Z,17.77
2023-02-09T18:20:50.836Z,19.77
2023-02-09T18:23:17.625Z,18.40
2023-02-09T18:25:46.660Z,19.50
2023-02-09T18:28:14.537Z,15.77
2023-02-09T18:30:42.231Z,17.58
2023-02-09T18:33:09.944Z,19.25
2023-02-09T18:35:41.857Z,18.60
2023-02-09T18:38:11.293Z,19.60
2023-02-09T18:40:39.129Z,20.42
2023-02-09T18:43:06.966Z,25.20
2023-02-09T18:45:34.534Z,19.30
2023-02-09T18:48:01.773Z,19.48
2023-02-09T18:50:31.075Z,21.52
2023-02-09T18:53:02.473Z,20.23
2023-02-09T18:55:32.004Z,20.30
2023-02-09T18:58:05.124Z,22.67
2023-02-09T19:00:32.684Z,20.50
2023-02-09T19:02:59.593Z,18.55
2023-02-09T19:05:29.549Z,21.25
2023-02-09T19:07:57.154Z,25.55
2023-02-09T19:10:25.026Z,21.98
2023-02-09T19:12:52.110Z,25.40
2023-02-09T19:15:19.107Z,20.80
2023-02-09T19:17:46.351Z,23.55
2023-02-09T19:20:17.480Z,25.33
2023-02-09T19:22:47.219Z,22.63
2023-02-09T19:25:14.895Z,21.98
2023-02-09T19:27:42.619Z,24.35
2023-02-09T19:30:14.196Z,29.58
2023-02-09T19:32:41.096Z,23.05
2023-02-09T19:35:08.476Z,23.75
2023-02-09T19:37:36.269Z,29.08
2023-02-09T19:40:17.309Z,22.30
2023-02-09T19:42:44.089Z,30.75
2023-02-09T19:45:11.051Z,29.92
2023-02-09T19:47:37.968Z,27.30
2023-02-09T19:50:05.206Z,28.48
2023-02-09T19:52:31.972Z,32.17
2023-02-09T19:54:58.617Z,31.83
2023-02-09T19:57:25.355Z,28.73
2023-02-09T19:59:53.306Z,30.10
2023-02-09T20:02:19.986Z,31.67
2023-02-09T20:04:46.718Z,28.88
2023-02-09T20:07:14.799Z,30.65
2023-02-09T20:09:41.812Z,29.80
2023-02-09T20:12:08.782Z,33.25
2023-02-09T20:14:35.488Z,30.33
2023-02-09T20:17:02.230Z,32.53
2023-02-09T20:19:29.329Z,30.80
2023-02-09T20:21:56.171Z,39.05
2023-02-09T20:24:23.534Z,30.88
2023-02-09T20:26:50.243Z,31.85
2023-02-09T20:29:17.033Z,33.20
2023-02-09T20:31:44.575Z,34.53
2023-02-09T20:34:13.802Z,27.35
2023-02-09T20:36:42.259Z,34.15
2023-02-09T20:39:13.424Z,31.23
2023-02-09T20:42:00.156Z,35.63
2023-02-09T20:44:45.997Z,31.50
2023-02-09T20:47:12.690Z,32.80
2023-02-09T20:49:40.565Z,29.35
2023-02-09T20:52:07.748Z,36.25
2023-02-09T20:54:34.756Z,40.47
2023-02-09T20:57:01.484Z,36.70
2023-02-09T20:59:29.140Z,33.70
2023-02-09T21:01:55.933Z,34.15
2023-02-09T21:04:22.815Z,28.48
2023-02-09T21:06:49.535Z,37.50
2023-02-09T21:09:16.577Z,35.67
2023-02-09T21:11:43.371Z,33.95
2023-02-09T21:14:21.642Z,38.08
2023-02-09T21:19:24.912Z,30.67
2023-02-09T21:21:51.736Z,39.53
2023-02-09T21:24:19.180Z,35.03
2023-02-09T21:26:46.459Z,32.90
2023-02-09T21:29:14.204Z,38.05
2023-02-09T21:31:41.187Z,37.42
2023-02-09T21:34:08.042Z,31.52
2023-02-09T21:36:34.779Z,37.67
2023-02-09T21:39:01.606Z,32.00
2023-02-09T21:41:46.918Z,32.97
2023-02-09T21:44:15.014Z,36.08
2023-02-09T21:46:42.475Z,36.28
2023-02-09T21:49:11.920Z,32.83
2023-02-09T21:51:39.850Z,32.65
2023-02-09T21:54:06.797Z,33.67
2023-02-09T21:56:33.530Z,37.03
2023-02-09T21:59:00.188Z,35.78
2023-02-09T22:01:27.081Z,31.02
2023-02-09T22:03:57.197Z,37.10
2023-02-09T22:06:25.579Z,40.28
2023-02-09T22:08:52.449Z,35.92
2023-02-09T22:11:19.200Z,34.50
2023-02-09T22:13:46.165Z,40.55
2023-02-09T22:16:19.216Z,34.72
2023-02-09T22:18:46.088Z,31.65
2023-02-09T22:21:13.164Z,36.20
2023-02-09T22:23:39.847Z,38.38
2023-02-09T22:26:07.138Z,37.25
2023-02-09T22:28:36.495Z,35.90
2023-02-09T22:31:12.911Z,39.50
2023-02-09T22:33:40.208Z,33.97
2023-02-09T22:36:09.435Z,36.75
2023-02-09T22:38:36.485Z,38.22
2023-02-09T22:41:07.815Z,34.25
2023-02-09T22:43:35.015Z,38.03
2023-02-09T22:46:01.797Z,38.85
2023-02-09T22:48:28.556Z,33.78
2023-02-09T22:50:55.309Z,34.55
2023-02-09T22:53:22.068Z,39.42
2023-02-09T22:55:49.455Z,39.47
2023-02-09T22:58:16.372Z,37.00
2023-02-09T23:00:43.173Z,36.67
2023-02-09T23:03:09.994Z,35.88
2023-02-09T23:05:36.888Z,33.08
2023-02-09T23:08:04.139Z,37.10
2023-02-09T23:10:30.863Z,42.53
2023-02-09T23:12:57.588Z,38.88
2023-02-09T23:15:24.359Z,39.20
2023-02-09T23:17:51.063Z,39.15
2023-02-09T23:20:17.774Z,37.15
2023-02-09T23:22:44.632Z,36.35
2023-02-09T23:25:11.304Z,34.97
2023-02-09T23:27:38.129Z,35.17
2023-02-09T23:30:05.201Z,43.15
2023-02-09T23:32:31.980Z,39.00
2023-02-09T23:37:37.701Z,39.70
2023-02-09T23:40:05.404Z,37.28
2023-02-09T23:42:32.109Z,37.42
2023-02-09T23:44:58.817Z,44.28
2023-02-09T23:47:25.504Z,41.63
2023-02-09T23:49:52.235Z,42.65
2023-02-09T23:52:18.955Z,39.08
2023-02-09T23:54:45.598Z,43.22
2023-02-09T23:57:12.289Z,36.83
2023-02-09T23:59:39.534Z,39.47
